LFKJ/AJA METAR and TAF weather

Enter ICAO airport designator
Station Type Date Time Source
LFKJ METAR 2018/12/19 09:30 UTC NOAA

LFKJ 190930Z AUTO 04004KT 360V100 CAVOK 11/04 Q1024 NOSIG


Station Type Date Time Source
LFKJ Decoded METAR 2018/12/19 09:30 UTC NOAA

Ajaccio, France (LFKJ) 41-55N 008-48E 9M
Dec 19, 2018 - 04:30 AM EST / 2018.12.19 0930 UTC
Wind: from the NE (040 degrees) at 5 MPH (4 KT) (direction variable):0
Visibility: greater than 7 mile(s):0
Temperature: 51 F (11 C)
Dew Point: 39 F (4 C)
Relative Humidity: 61%
Pressure (altimeter): 30.24 in. Hg (1024 hPa)
ob: LFKJ 190930Z AUTO 04004KT 360V100 CAVOK 11/04 Q1024 NOSIG
cycle: 9

Station Type Date Time Source
LFKJ TAF 2018/12/19 09:21 UTC NOAA

TAF LFKJ 190800Z 1909/2009 VRB05KT CAVOK
BECMG 1915/1918 BKN030
TEMPO 1920/2002 SHRA SCT030TCU BKN033


Example: see airport list